Time,TemperatureF,DewpointF,PressureIn,WindDirection,WindDirectionDegrees,WindSpeedMPH,WindSpeedGustMPH,Humidity,HourlyPrecipIn,Conditions,Clouds,dailyrainin,SoftwareType,DateUTC
2013-02-16 00:11:00,26.6,22.1,29.91,WNW,292,0.0,-999.0,83,-99.99,,,0.00,Acu-Link.com,2013-02-16 05:11:00,
2013-02-16 00:26:00,26.1,22.5,29.90,West,270,0.0,-999.0,86,-99.99,,,0.00,Acu-Link.com,2013-02-16 05:26:00,
2013-02-16 00:42:00,25.9,22.3,29.90,WNW,292,0.0,-999.0,86,-99.99,,,0.00,Acu-Link.com,2013-02-16 05:42:00,
2013-02-16 00:57:00,25.3,22.0,29.90,West,270,0.0,-999.0,87,-99.99,,,0.00,Acu-Link.com,2013-02-16 05:57:00,
2013-02-16 01:12:00,25.0,22.0,29.90,SW,225,0.0,-999.0,88,-99.99,,,0.00,Acu-Link.com,2013-02-16 06:12:00,
2013-02-16 01:27:00,25.3,22.3,29.90,North,0,2.7,-999.0,88,-99.99,,,0.00,Acu-Link.com,2013-02-16 06:27:00,
2013-02-16 01:42:00,25.3,22.3,29.90,NE,45,2.2,-999.0,88,-99.99,,,0.00,Acu-Link.com,2013-02-16 06:42:00,
2013-02-16 01:58:00,24.6,21.8,29.90,SSW,202,0.0,-999.0,89,-99.99,,,0.00,Acu-Link.com,2013-02-16 06:58:00,
2013-02-16 02:13:00,24.1,21.9,29.89,North,0,0.0,-999.0,91,-99.99,,,0.00,Acu-Link.com,2013-02-16 07:13:00,
2013-02-16 02:28:00,23.9,21.7,29.89,ENE,67,0.0,-999.0,91,-99.99,,,0.00,Acu-Link.com,2013-02-16 07:28:00,
2013-02-16 02:44:00,23.5,21.8,29.89,NE,45,0.0,-999.0,93,-99.99,,,0.00,Acu-Link.com,2013-02-16 07:44:00,
2013-02-16 02:59:00,22.8,21.3,29.89,NE,45,0.0,-999.0,94,-99.99,,,0.00,Acu-Link.com,2013-02-16 07:59:00,
2013-02-16 03:14:00,22.3,21.1,29.89,WNW,292,0.0,-999.0,95,-99.99,,,0.00,Acu-Link.com,2013-02-16 08:14:00,
2013-02-16 03:29:00,22.3,21.3,29.88,SW,225,0.0,-999.0,96,-99.99,,,0.00,Acu-Link.com,2013-02-16 08:29:00,
2013-02-16 03:45:00,22.3,21.6,29.87,WNW,292,0.0,-999.0,97,-99.99,,,0.00,Acu-Link.com,2013-02-16 08:45:00,
2013-02-16 04:00:00,22.3,21.6,29.88,WSW,247,0.0,-999.0,97,-99.99,,,0.00,Acu-Link.com,2013-02-16 09:00:00,
2013-02-16 04:18:00,22.1,21.4,29.88,WSW,247,0.0,-999.0,97,-99.99,,,0.00,Acu-Link.com,2013-02-16 09:18:00,
2013-02-16 04:34:00,21.7,21.0,29.87,WSW,247,0.0,-999.0,97,-99.99,,,0.00,Acu-Link.com,2013-02-16 09:34:00,
2013-02-16 04:49:00,22.1,21.4,29.87,West,270,0.0,-999.0,97,-99.99,,,0.00,Acu-Link.com,2013-02-16 09:49:00,
2013-02-16 05:04:00,21.7,21.0,29.87,West,270,0.0,-999.0,97,-99.99,,,0.00,Acu-Link.com,2013-02-16 10:04:00,
2013-02-16 05:19:00,21.4,20.7,29.87,West,270,0.0,-999.0,97,-99.99,,,0.00,Acu-Link.com,2013-02-16 10:19:00,
2013-02-16 05:34:00,21.9,21.2,29.87,West,270,0.0,-999.0,97,-99.99,,,0.00,Acu-Link.com,2013-02-16 10:34:00,
2013-02-16 05:50:00,21.6,20.9,29.87,West,270,0.0,-999.0,97,-99.99,,,0.00,Acu-Link.com,2013-02-16 10:50:00,
2013-02-16 06:05:00,20.7,19.7,29.87,West,270,0.0,-999.0,96,-99.99,,,0.00,Acu-Link.com,2013-02-16 11:05:00,
2013-02-16 06:20:00,20.7,20.0,29.86,West,270,0.0,-999.0,97,-99.99,,,0.00,Acu-Link.com,2013-02-16 11:20:00,
2013-02-16 06:35:00,20.8,20.3,29.87,West,270,0.0,-999.0,98,-99.99,,,0.00,Acu-Link.com,2013-02-16 11:35:00,
2013-02-16 06:51:00,20.7,20.5,29.86,South,180,0.0,-999.0,99,-99.99,,,0.00,Acu-Link.com,2013-02-16 11:51:00,
2013-02-16 07:06:00,19.9,19.4,29.86,SSW,202,0.0,-999.0,98,-99.99,,,0.00,Acu-Link.com,2013-02-16 12:06:00,
2013-02-16 07:21:00,19.0,18.3,29.86,SSW,202,0.0,-999.0,97,-99.99,,,0.00,Acu-Link.com,2013-02-16 12:21:00,
2013-02-16 07:37:00,19.2,18.7,29.87,WSW,247,0.0,-999.0,98,-99.99,,,0.00,Acu-Link.com,2013-02-16 12:37:00,
2013-02-16 07:52:00,19.4,19.2,29.86,WSW,247,0.0,-999.0,99,-99.99,,,0.00,Acu-Link.com,2013-02-16 12:52:00,
2013-02-16 08:07:00,20.1,19.9,29.86,WSW,247,0.0,-999.0,99,-99.99,,,0.00,Acu-Link.com,2013-02-16 13:07:00,
2013-02-16 08:22:00,23.4,22.9,29.86,West,270,0.0,-999.0,98,-99.99,,,0.00,Acu-Link.com,2013-02-16 13:22:00,
2013-02-16 08:38:00,25.3,22.8,29.86,SW,225,1.7,-999.0,90,-99.99,,,0.00,Acu-Link.com,2013-02-16 13:38:00,
2013-02-16 08:53:00,25.9,22.6,29.86,SW,225,1.7,-999.0,87,-99.99,,,0.00,Acu-Link.com,2013-02-16 13:53:00,
2013-02-16 09:08:00,26.4,22.5,29.87,WSW,247,2.7,-999.0,85,-99.99,,,0.00,Acu-Link.com,2013-02-16 14:08:00,
2013-02-16 09:24:00,27.3,22.8,29.86,SW,225,3.7,-999.0,83,-99.99,,,0.00,Acu-Link.com,2013-02-16 14:24:00,
2013-02-16 09:39:00,28.0,21.7,29.85,West,270,2.7,-999.0,77,-99.99,,,0.00,Acu-Link.com,2013-02-16 14:39:00,
2013-02-16 09:54:00,29.1,20.9,29.86,SSE,157,1.7,-999.0,71,-99.99,,,0.00,Acu-Link.com,2013-02-16 14:54:00,
2013-02-16 10:10:00,29.1,20.9,29.86,West,270,3.7,-999.0,71,-99.99,,,0.00,Acu-Link.com,2013-02-16 15:10:00,
2013-02-16 10:25:00,29.5,19.6,29.86,SSW,202,1.1,-999.0,66,-99.99,,,0.00,Acu-Link.com,2013-02-16 15:25:00,
2013-02-16 10:40:00,29.8,20.2,29.86,SW,225,3.7,-999.0,67,-99.99,,,0.00,Acu-Link.com,2013-02-16 15:40:00,
2013-02-16 10:56:00,30.9,19.1,29.86,WSW,247,5.8,-999.0,61,-99.99,,,0.00,Acu-Link.com,2013-02-16 15:56:00,
2013-02-16 11:11:00,31.5,19.6,29.85,West,270,3.7,-999.0,61,-99.99,,,0.00,Acu-Link.com,2013-02-16 16:11:00,
2013-02-16 11:26:00,31.5,18.8,29.85,West,270,6.3,-999.0,59,-99.99,,,0.00,Acu-Link.com,2013-02-16 16:26:00,
2013-02-16 11:41:00,31.6,20.8,29.85,SW,225,3.7,-999.0,64,-99.99,,,0.00,Acu-Link.com,2013-02-16 16:41:00,
2013-02-16 11:57:00,32.0,19.7,29.84,West,270,7.3,-999.0,60,-99.99,,,0.00,Acu-Link.com,2013-02-16 16:57:00,
2013-02-16 12:12:00,31.3,18.7,29.84,WSW,247,4.7,-999.0,59,-99.99,,,0.00,Acu-Link.com,2013-02-16 17:12:00,
2013-02-16 12:27:00,31.3,19.4,29.84,SW,225,6.8,-999.0,61,-99.99,,,0.00,Acu-Link.com,2013-02-16 17:27:00,
2013-02-16 12:43:00,31.5,18.8,29.83,SSW,202,6.3,-999.0,59,-99.99,,,0.00,Acu-Link.com,2013-02-16 17:43:00,
2013-02-16 12:58:00,30.7,18.5,29.82,WSW,247,4.7,-999.0,60,-99.99,,,0.00,Acu-Link.com,2013-02-16 17:58:00,
2013-02-16 13:13:00,32.5,19.4,29.81,West,270,5.8,-999.0,58,-99.99,,,0.00,Acu-Link.com,2013-02-16 18:13:00,
2013-02-16 13:28:00,31.1,17.3,29.81,WNW,292,6.3,-999.0,56,-99.99,,,0.00,Acu-Link.com,2013-02-16 18:28:00,
2013-02-16 13:43:00,31.1,17.3,29.81,West,270,10.9,-999.0,56,-99.99,,,0.00,Acu-Link.com,2013-02-16 18:43:00,
2013-02-16 13:59:00,31.8,17.5,29.81,WNW,292,5.8,-999.0,55,-99.99,,,0.00,Acu-Link.com,2013-02-16 18:59:00,
2013-02-16 14:14:00,31.5,14.1,29.80,SW,225,4.7,-999.0,48,-99.99,,,0.00,Acu-Link.com,2013-02-16 19:14:00,
2013-02-16 14:29:00,31.6,16.0,29.80,West,270,4.7,-999.0,52,-99.99,,,0.00,Acu-Link.com,2013-02-16 19:29:00,
2013-02-16 14:45:00,32.0,14.1,29.80,West,270,11.4,-999.0,47,-99.99,,,0.00,Acu-Link.com,2013-02-16 19:45:00,
2013-02-16 15:00:00,32.4,12.4,29.80,North,0,8.3,-999.0,43,-99.99,,,0.00,Acu-Link.com,2013-02-16 20:00:00,
2013-02-16 15:15:00,30.9,11.6,29.80,SSW,202,10.4,-999.0,44,-99.99,,,0.00,Acu-Link.com,2013-02-16 20:15:00,
2013-02-16 15:30:00,32.9,12.4,29.80,East,90,4.2,-999.0,42,-99.99,,,0.00,Acu-Link.com,2013-02-16 20:30:00,
2013-02-16 15:45:00,33.3,13.8,29.80,NW,315,4.2,-999.0,44,-99.99,,,0.00,Acu-Link.com,2013-02-16 20:45:00,
2013-02-16 16:01:00,32.7,14.2,29.79,SSW,202,2.2,-999.0,46,-99.99,,,0.00,Acu-Link.com,2013-02-16 21:01:00,
2013-02-16 16:16:00,30.6,12.3,29.80,West,270,5.3,-999.0,46,-99.99,,,0.00,Acu-Link.com,2013-02-16 21:16:00,
2013-02-16 16:31:00,30.7,11.9,29.81,SSW,202,9.9,-999.0,45,-99.99,,,0.00,Acu-Link.com,2013-02-16 21:31:00,
2013-02-16 16:47:00,30.4,12.6,29.81,WNW,292,2.7,-999.0,47,-99.99,,,0.00,Acu-Link.com,2013-02-16 21:47:00,
2013-02-16 17:02:00,31.3,12.5,29.81,WNW,292,5.8,-999.0,45,-99.99,,,0.00,Acu-Link.com,2013-02-16 22:02:00,
2013-02-16 17:17:00,30.2,12.9,29.82,East,90,6.8,-999.0,48,-99.99,,,0.00,Acu-Link.com,2013-02-16 22:17:00,
2013-02-16 17:33:00,29.3,11.6,29.81,North,0,4.7,-999.0,47,-99.99,,,0.00,Acu-Link.com,2013-02-16 22:33:00,
2013-02-16 17:48:00,28.8,11.1,29.81,SW,225,5.3,-999.0,47,-99.99,,,0.00,Acu-Link.com,2013-02-16 22:48:00,
2013-02-16 18:03:00,28.2,11.1,29.82,SSW,202,2.7,-999.0,48,-99.99,,,0.00,Acu-Link.com,2013-02-16 23:03:00,
2013-02-16 18:18:00,28.0,10.4,29.82,West,270,3.2,-999.0,47,-99.99,,,0.00,Acu-Link.com,2013-02-16 23:18:00,
2013-02-16 18:34:00,27.7,11.1,29.82,NNW,337,2.2,-999.0,49,-99.99,,,0.00,Acu-Link.com,2013-02-16 23:34:00,
2013-02-16 18:49:00,27.3,11.6,29.83,West,270,1.7,-999.0,51,-99.99,,,0.00,Acu-Link.com,2013-02-16 23:49:00,
2013-02-16 19:04:00,27.1,11.4,29.84,SE,135,1.1,-999.0,51,-99.99,,,0.00,Acu-Link.com,2013-02-17 00:04:00,
2013-02-16 19:20:00,27.1,11.4,29.84,West,270,4.7,-999.0,51,-99.99,,,0.00,Acu-Link.com,2013-02-17 00:20:00,
2013-02-16 19:35:00,26.8,9.8,29.84,West,270,4.7,-999.0,48,-99.99,,,0.00,Acu-Link.com,2013-02-17 00:35:00,
2013-02-16 19:50:00,26.4,9.9,29.85,West,270,6.3,-999.0,49,-99.99,,,0.00,Acu-Link.com,2013-02-17 00:50:00,
2013-02-16 20:05:00,25.9,10.3,29.85,WSW,247,3.7,-999.0,51,-99.99,,,0.00,Acu-Link.com,2013-02-17 01:05:00,
2013-02-16 20:20:00,25.7,10.1,29.85,NW,315,2.7,-999.0,51,-99.99,,,0.00,Acu-Link.com,2013-02-17 01:20:00,
2013-02-16 20:36:00,25.3,10.2,29.86,WSW,247,3.2,-999.0,52,-99.99,,,0.00,Acu-Link.com,2013-02-17 01:36:00,
2013-02-16 20:51:00,25.2,10.1,29.86,WSW,247,3.7,-999.0,52,-99.99,,,0.00,Acu-Link.com,2013-02-17 01:51:00,
2013-02-16 21:06:00,25.2,10.9,29.86,East,90,4.2,-999.0,54,-99.99,,,0.00,Acu-Link.com,2013-02-17 02:06:00,
2013-02-16 21:22:00,24.4,13.6,29.87,NE,45,2.7,-999.0,63,-99.99,,,0.00,Acu-Link.com,2013-02-17 02:22:00,
2013-02-16 21:37:00,24.3,13.9,29.88,NNE,22,3.2,-999.0,64,-99.99,,,0.00,Acu-Link.com,2013-02-17 02:37:00,
2013-02-16 21:52:00,24.3,13.5,29.88,NE,45,5.3,-999.0,63,-99.99,,,0.00,Acu-Link.com,2013-02-17 02:52:00,
2013-02-16 22:08:00,23.5,13.8,29.89,North,0,2.7,-999.0,66,-99.99,,,0.00,Acu-Link.com,2013-02-17 03:08:00,
2013-02-16 22:23:00,22.6,14.6,29.90,North,0,4.7,-999.0,71,-99.99,,,0.00,Acu-Link.com,2013-02-17 03:23:00,
2013-02-16 22:38:00,22.6,14.6,29.90,NNE,22,4.7,-999.0,71,-99.99,,,0.00,Acu-Link.com,2013-02-17 03:38:00,
2013-02-16 22:54:00,23.0,14.0,29.90,West,270,2.2,-999.0,68,-99.99,,,0.00,Acu-Link.com,2013-02-17 03:54:00,
2013-02-16 23:09:00,22.6,13.0,29.91,ESE,112,6.3,-999.0,66,-99.99,,,0.00,Acu-Link.com,2013-02-17 04:09:00,
2013-02-16 23:24:00,22.6,13.0,29.90,WNW,292,3.7,-999.0,66,-99.99,,,0.00,Acu-Link.com,2013-02-17 04:24:00,
2013-02-16 23:40:00,22.5,13.2,29.90,West,270,2.2,-999.0,67,-99.99,,,0.00,Acu-Link.com,2013-02-17 04:40:00,
2013-02-16 23:55:00,22.3,12.7,29.90,NW,315,3.7,-999.0,66,-99.99,,,0.00,Acu-Link.com,2013-02-17 04:55:00,